createdAt,value
2018-04-27T00:00:47.307Z,99.90
2018-04-27T00:03:14.971Z,99.90
2018-04-27T00:05:42.659Z,99.90
2018-04-27T00:08:11.115Z,99.90
2018-04-27T00:10:38.751Z,99.90
2018-04-27T00:13:06.522Z,99.90
2018-04-27T00:15:34.188Z,99.90
2018-04-27T00:18:01.809Z,99.90
2018-04-27T00:20:29.450Z,99.90
2018-04-27T00:22:57.194Z,99.90
2018-04-27T00:25:26.896Z,99.90
2018-04-27T00:27:56.589Z,99.90
2018-04-27T00:30:24.261Z,99.90
2018-04-27T00:32:52.092Z,99.90
2018-04-27T00:35:19.891Z,99.90
2018-04-27T00:37:47.650Z,99.90
2018-04-27T00:40:18.546Z,99.90
2018-04-27T00:42:46.421Z,99.90
2018-04-27T00:45:15.094Z,99.90
2018-04-27T00:47:43.016Z,99.90
2018-04-27T00:50:11.701Z,99.90
2018-04-27T00:55:48.116Z,99.90
2018-04-27T00:58:19.920Z,99.90
2018-04-27T01:00:47.646Z,99.90
2018-04-27T01:03:16.968Z,99.90
2018-04-27T01:05:44.659Z,99.90
2018-04-27T01:08:12.940Z,99.90
2018-04-27T01:10:45.688Z,99.90
2018-04-27T01:13:13.502Z,99.90
2018-04-27T01:15:41.299Z,99.90
2018-04-27T01:18:10.747Z,99.90
2018-04-27T01:20:38.677Z,99.90
2018-04-27T01:23:06.438Z,99.90
2018-04-27T01:25:35.475Z,99.90
2018-04-27T01:28:04.439Z,99.90
2018-04-27T01:30:32.240Z,99.90
2018-04-27T01:33:00.477Z,99.90
2018-04-27T01:35:31.734Z,99.90
2018-04-27T01:38:00.252Z,99.90
2018-04-27T01:40:28.196Z,99.90
2018-04-27T01:42:58.467Z,99.90
2018-04-27T01:45:27.112Z,99.90
2018-04-27T01:47:55.677Z,99.90
2018-04-27T01:50:23.620Z,99.90
2018-04-27T01:52:54.251Z,99.90
2018-04-27T01:55:23.218Z,99.90
2018-04-27T01:57:51.077Z,99.90
2018-04-27T02:00:19.602Z,99.90
2018-04-27T02:02:47.646Z,99.90
2018-04-27T02:05:17.106Z,99.90
2018-04-27T02:07:47.205Z,99.90
2018-04-27T02:10:16.513Z,99.90
2018-04-27T02:12:44.318Z,99.90
2018-04-27T02:15:13.513Z,99.90
2018-04-27T02:17:41.990Z,99.90
2018-04-27T02:20:12.808Z,99.90
2018-04-27T02:22:40.543Z,99.90
2018-04-27T02:25:08.150Z,99.90
2018-04-27T02:27:35.757Z,99.90
2018-04-27T02:30:03.483Z,99.90
2018-04-27T02:32:31.160Z,99.90
2018-04-27T02:34:58.847Z,99.90
2018-04-27T02:37:26.688Z,99.90
2018-04-27T02:39:55.172Z,99.90
2018-04-27T02:42:23.674Z,99.90
2018-04-27T02:44:51.489Z,99.90
2018-04-27T02:47:20.076Z,99.90
2018-04-27T02:49:47.913Z,99.90
2018-04-27T02:52:15.701Z,99.90
2018-04-27T02:54:43.549Z,99.90
2018-04-27T02:57:11.433Z,99.90
2018-04-27T02:59:39.260Z,99.90
2018-04-27T03:02:07.023Z,99.90
2018-04-27T03:04:34.735Z,99.90
2018-04-27T03:07:02.424Z,99.90
2018-04-27T03:09:30.052Z,99.90
2018-04-27T03:11:57.729Z,99.90
2018-04-27T03:14:25.506Z,99.90
2018-04-27T03:16:53.294Z,99.90
2018-04-27T03:19:21.837Z,99.90
2018-04-27T03:21:49.711Z,99.90
2018-04-27T03:24:17.459Z,99.90
2018-04-27T03:26:45.215Z,99.90
2018-04-27T03:29:13.040Z,99.90
2018-04-27T03:31:40.840Z,99.90
2018-04-27T03:34:08.693Z,99.90
2018-04-27T03:36:36.693Z,99.90
2018-04-27T03:39:04.578Z,99.90
2018-04-27T03:41:32.309Z,99.90
2018-04-27T03:44:00.193Z,99.90
2018-04-27T03:46:28.161Z,99.90
2018-04-27T03:48:55.929Z,99.90
2018-04-27T03:51:23.792Z,99.90
2018-04-27T03:53:51.693Z,99.90
2018-04-27T03:56:20.293Z,99.90
2018-04-27T03:58:48.177Z,99.90
2018-04-27T04:01:27.896Z,99.90
2018-04-27T04:04:08.314Z,99.90
2018-04-27T04:06:36.087Z,99.90
2018-04-27T04:09:03.987Z,99.90
2018-04-27T04:11:31.839Z,99.90
2018-04-27T04:13:59.514Z,99.90
2018-04-27T04:16:27.939Z,99.90
2018-04-27T04:18:55.689Z,99.90
2018-04-27T04:21:23.304Z,99.90
2018-04-27T04:23:51.035Z,99.90
2018-04-27T04:26:18.883Z,99.90
2018-04-27T04:28:46.682Z,99.90
2018-04-27T04:31:14.698Z,99.90
2018-04-27T04:33:42.491Z,99.90
2018-04-27T04:36:11.073Z,99.90
2018-04-27T04:38:38.903Z,99.90
2018-04-27T04:41:07.621Z,99.90
2018-04-27T04:43:35.271Z,99.90
2018-04-27T04:46:02.919Z,99.90
2018-04-27T04:48:31.419Z,99.90
2018-04-27T04:50:59.078Z,99.90
2018-04-27T04:53:26.813Z,99.90
2018-04-27T04:55:55.466Z,99.90
2018-04-27T04:58:23.302Z,99.90
2018-04-27T05:00:51.173Z,99.90
2018-04-27T05:03:18.992Z,99.90
2018-04-27T05:05:46.704Z,99.90
2018-04-27T05:08:14.411Z,99.90
2018-04-27T05:10:42.237Z,99.90
2018-04-27T05:13:09.956Z,99.90
2018-04-27T05:15:37.775Z,99.90
2018-04-27T05:18:12.469Z,99.90
2018-04-27T05:20:40.301Z,99.90
2018-04-27T05:23:08.156Z,99.90
2018-04-27T05:25:36.012Z,99.90
2018-04-27T05:28:03.809Z,99.90
2018-04-27T05:30:32.586Z,99.90
2018-04-27T05:33:05.334Z,99.90
2018-04-27T05:35:33.289Z,99.90
2018-04-27T05:38:01.137Z,99.90
2018-04-27T05:40:29.090Z,99.90
2018-04-27T05:42:57.721Z,99.90
2018-04-27T05:45:25.650Z,99.90
2018-04-27T05:47:54.234Z,99.90
2018-04-27T05:50:22.882Z,99.90
2018-04-27T05:52:50.762Z,99.90
2018-04-27T05:55:18.676Z,99.90
2018-04-27T05:57:46.515Z,99.90
2018-04-27T06:00:15.082Z,99.90
2018-04-27T06:02:43.017Z,99.90
2018-04-27T06:05:10.870Z,99.90
2018-04-27T06:07:38.751Z,99.90
2018-04-27T06:10:06.624Z,99.90
2018-04-27T06:12:34.471Z,99.90
2018-04-27T06:15:02.392Z,99.90
2018-04-27T06:17:30.176Z,99.90
2018-04-27T06:19:58.012Z,99.90
2018-04-27T06:22:25.838Z,99.90
2018-04-27T06:24:53.742Z,99.90
2018-04-27T06:27:21.610Z,99.90
2018-04-27T06:29:49.434Z,99.90
2018-04-27T06:32:17.275Z,99.90
2018-04-27T06:34:45.130Z,99.90
2018-04-27T06:37:12.928Z,99.90
2018-04-27T06:39:40.717Z,99.90
2018-04-27T06:42:08.570Z,99.90
2018-04-27T06:44:36.502Z,99.90
2018-04-27T06:47:05.112Z,99.90
2018-04-27T06:49:32.947Z,99.90
2018-04-27T06:52:01.561Z,99.90
2018-04-27T06:54:31.180Z,99.90
2018-04-27T06:56:59.181Z,99.90
2018-04-27T06:59:27.101Z,99.90
2018-04-27T07:01:55.050Z,99.90
2018-04-27T07:04:23.709Z,99.90
2018-04-27T07:06:51.541Z,99.90
2018-04-27T07:09:19.474Z,99.90
2018-04-27T07:11:48.098Z,99.90
2018-04-27T07:14:16.036Z,99.90
2018-04-27T07:16:43.927Z,99.90
2018-04-27T07:19:11.741Z,99.90
2018-04-27T07:21:40.274Z,99.90
2018-04-27T07:24:08.133Z,99.90
2018-04-27T07:26:35.916Z,99.90
2018-04-27T07:29:03.755Z,99.90
2018-04-27T07:31:31.591Z,99.90
2018-04-27T07:34:00.296Z,99.90
2018-04-27T07:36:28.144Z,99.90
2018-04-27T07:38:56.878Z,99.90
2018-04-27T07:41:24.808Z,99.90
2018-04-27T07:43:53.479Z,99.90
2018-04-27T07:46:21.380Z,99.90
2018-04-27T07:48:50.110Z,99.90
2018-04-27T07:51:18.490Z,99.90
2018-04-27T07:53:46.432Z,99.90
2018-04-27T07:56:14.313Z,99.90
2018-04-27T07:58:42.602Z,99.90
2018-04-27T08:01:10.513Z,99.90
2018-04-27T08:03:39.126Z,99.90
2018-04-27T08:06:07.759Z,99.90
2018-04-27T08:08:35.702Z,99.90
2018-04-27T08:11:03.595Z,99.90
2018-04-27T08:13:31.454Z,99.90
2018-04-27T08:15:59.410Z,99.90
2018-04-27T08:18:27.342Z,99.90
2018-04-27T08:20:55.203Z,99.90
2018-04-27T08:23:23.113Z,99.90
2018-04-27T08:25:50.961Z,99.90
2018-04-27T08:28:18.877Z,99.90
2018-04-27T08:30:47.554Z,99.90
2018-04-27T08:33:15.406Z,99.90
2018-04-27T08:35:44.007Z,99.90
2018-04-27T08:38:11.890Z,99.90
2018-04-27T08:40:39.721Z,99.90
2018-04-27T08:43:08.313Z,99.90
2018-04-27T08:45:36.200Z,99.90
2018-04-27T08:48:04.792Z,99.90
2018-04-27T08:50:32.724Z,99.90
2018-04-27T08:53:00.658Z,99.90
2018-04-27T08:55:28.599Z,99.80
2018-04-27T08:57:57.323Z,98.50
2018-04-27T09:00:25.289Z,98.50
2018-04-27T09:02:53.077Z,96.80
2018-04-27T09:05:20.980Z,99.50
2018-04-27T09:07:49.689Z,97.70
2018-04-27T09:10:17.581Z,97.60
2018-04-27T09:12:45.425Z,96.70
2018-04-27T09:15:13.382Z,96.80
2018-04-27T09:17:41.905Z,98.60
2018-04-27T09:20:09.718Z,98.60
2018-04-27T09:22:38.474Z,97.00
2018-04-27T09:25:06.222Z,97.00
2018-04-27T09:27:34.131Z,96.10
2018-04-27T09:30:02.916Z,97.00
2018-04-27T09:32:30.729Z,97.20
2018-04-27T09:34:58.593Z,95.80
2018-04-27T09:37:26.594Z,95.90
2018-04-27T09:39:54.488Z,95.70
2018-04-27T09:42:22.379Z,96.90
2018-04-27T09:44:50.317Z,96.80
2018-04-27T09:47:18.217Z,97.00
2018-04-27T09:49:46.192Z,97.20
2018-04-27T09:52:14.066Z,97.40
2018-04-27T09:54:41.950Z,96.30
2018-04-27T09:57:09.766Z,97.00
2018-04-27T09:59:38.500Z,96.00
2018-04-27T10:02:06.320Z,96.00
2018-04-27T10:04:34.921Z,94.40
2018-04-27T10:07:03.646Z,94.50
2018-04-27T10:09:31.429Z,94.50
2018-04-27T10:11:59.315Z,94.70
2018-04-27T10:14:27.237Z,95.10
2018-04-27T10:16:54.993Z,94.80
2018-04-27T10:19:22.937Z,93.10
2018-04-27T10:21:51.533Z,92.50
2018-04-27T10:24:19.401Z,92.50
2018-04-27T10:26:47.791Z,92.40
2018-04-27T10:29:15.601Z,91.30
2018-04-27T10:31:43.462Z,96.10
2018-04-27T10:34:11.415Z,93.50
2018-04-27T10:36:39.400Z,92.30
2018-04-27T10:39:07.195Z,92.30
2018-04-27T10:41:35.875Z,91.30
2018-04-27T10:44:04.586Z,90.70
2018-04-27T10:46:32.561Z,90.70
2018-04-27T10:49:00.489Z,88.50
2018-04-27T10:51:29.185Z,89.80
2018-04-27T10:53:57.876Z,89.10
2018-04-27T10:56:26.539Z,89.90
2018-04-27T10:58:54.475Z,89.90
2018-04-27T11:01:22.529Z,88.00
2018-04-27T11:03:50.450Z,86.30
2018-04-27T11:06:18.380Z,85.60
2018-04-27T11:08:46.191Z,86.30
2018-04-27T11:11:14.517Z,82.90
2018-04-27T11:13:42.485Z,83.90
2018-04-27T11:16:10.415Z,83.70
2018-04-27T11:18:38.326Z,75.80
2018-04-27T11:21:06.199Z,75.40
2018-04-27T11:23:34.045Z,75.50
2018-04-27T11:26:01.979Z,76.80
2018-04-27T11:28:30.627Z,74.70
2018-04-27T11:30:58.604Z,74.60
2018-04-27T11:33:26.532Z,72.70
2018-04-27T11:35:54.456Z,68.80
2018-04-27T11:38:22.341Z,67.80
2018-04-27T11:40:50.150Z,67.30
2018-04-27T11:43:18.079Z,68.00
2018-04-27T11:45:46.878Z,65.10
2018-04-27T11:48:15.486Z,65.00
2018-04-27T11:50:43.438Z,65.00
2018-04-27T11:53:11.435Z,65.00
2018-04-27T11:55:39.318Z,62.90
2018-04-27T11:58:07.270Z,65.20
2018-04-27T12:00:35.252Z,63.00
2018-04-27T12:03:03.067Z,62.50
2018-04-27T12:05:31.763Z,59.10
2018-04-27T12:07:59.627Z,59.00
2018-04-27T12:10:28.334Z,59.10
2018-04-27T12:12:56.546Z,59.00
2018-04-27T12:15:24.596Z,56.40
2018-04-27T12:17:52.692Z,59.20
2018-04-27T12:20:20.551Z,57.70
2018-04-27T12:22:48.486Z,58.20
2018-04-27T12:25:16.249Z,56.80
2018-04-27T12:27:44.011Z,58.20
2018-04-27T12:30:11.832Z,58.70
2018-04-27T12:32:39.548Z,57.40
2018-04-27T12:35:07.345Z,57.20
2018-04-27T12:37:35.077Z,56.80
2018-04-27T12:40:02.828Z,57.60
2018-04-27T12:42:30.669Z,54.50
2018-04-27T12:44:58.426Z,54.80
2018-04-27T12:47:26.339Z,55.00
2018-04-27T12:49:54.207Z,55.80
2018-04-27T12:52:22.204Z,55.60
2018-04-27T12:54:50.146Z,55.50
2018-04-27T12:57:18.136Z,56.80
2018-04-27T12:59:45.944Z,56.10
2018-04-27T13:02:13.806Z,58.20
2018-04-27T13:04:41.622Z,59.10
2018-04-27T13:07:09.501Z,57.90
2018-04-27T13:09:37.357Z,56.70
2018-04-27T13:12:05.213Z,57.00
2018-04-27T13:14:33.165Z,60.00
2018-04-27T13:17:01.762Z,56.10
2018-04-27T13:19:31.198Z,56.10
2018-04-27T13:21:59.077Z,57.80
2018-04-27T13:24:26.952Z,57.30
2018-04-27T13:26:54.918Z,54.40
2018-04-27T13:29:22.835Z,54.70
2018-04-27T13:31:50.677Z,55.00
2018-04-27T13:34:19.317Z,63.90
2018-04-27T13:36:47.096Z,63.30
2018-04-27T13:39:15.046Z,58.30
2018-04-27T13:41:42.889Z,56.00
2018-04-27T13:44:10.670Z,50.60
2018-04-27T13:46:38.499Z,54.00
2018-04-27T13:49:07.157Z,49.60
2018-04-27T13:51:35.040Z,49.60
2018-04-27T13:54:03.643Z,48.60
2018-04-27T13:56:31.573Z,48.50
2018-04-27T13:58:59.446Z,48.30
2018-04-27T14:01:27.311Z,49.00
2018-04-27T14:03:55.182Z,47.90
2018-04-27T14:06:23.876Z,47.60
2018-04-27T14:08:51.666Z,47.40
2018-04-27T14:11:19.679Z,44.80
2018-04-27T14:13:47.612Z,46.40
2018-04-27T14:16:15.478Z,48.50
2018-04-27T14:18:43.471Z,47.60
2018-04-27T14:21:11.399Z,47.30
2018-04-27T14:23:39.953Z,48.00
2018-04-27T14:26:07.885Z,48.00
2018-04-27T14:28:36.484Z,49.30
2018-04-27T14:31:04.307Z,49.30
2018-04-27T14:33:32.926Z,47.80
2018-04-27T14:36:00.690Z,47.80
2018-04-27T14:38:28.385Z,48.40
2018-04-27T14:40:56.169Z,48.30
2018-04-27T14:43:23.935Z,48.10
2018-04-27T14:45:52.441Z,47.60
2018-04-27T14:48:20.200Z,47.40
2018-04-27T14:50:47.959Z,47.00
2018-04-27T14:53:16.435Z,45.70
2018-04-27T14:55:44.959Z,46.80
2018-04-27T14:58:12.683Z,46.70
2018-04-27T15:00:41.218Z,46.40
2018-04-27T15:03:09.224Z,46.30
2018-04-27T15:05:37.742Z,47.20
2018-04-27T15:08:05.594Z,47.10
2018-04-27T15:10:33.403Z,44.70
2018-04-27T15:13:01.135Z,46.40
2018-04-27T15:15:28.876Z,45.40
2018-04-27T15:17:57.420Z,47.70
2018-04-27T15:20:25.185Z,47.70
2018-04-27T15:22:53.022Z,47.80
2018-04-27T15:25:20.950Z,47.40
2018-04-27T15:27:49.591Z,47.20
2018-04-27T15:30:17.551Z,47.20
2018-04-27T15:32:45.456Z,47.00
2018-04-27T15:35:14.161Z,46.70
2018-04-27T15:37:41.955Z,46.70
2018-04-27T15:40:09.819Z,47.60
2018-04-27T15:42:37.700Z,46.40
2018-04-27T15:45:05.501Z,47.30
2018-04-27T15:47:33.449Z,48.40
2018-04-27T15:50:01.277Z,48.40
2018-04-27T15:52:29.077Z,48.20
2018-04-27T15:54:56.943Z,47.10
2018-04-27T15:57:24.817Z,47.60
2018-04-27T15:59:52.641Z,47.30
2018-04-27T16:02:20.636Z,47.40
2018-04-27T16:04:48.531Z,47.30
2018-04-27T16:07:16.459Z,47.80
2018-04-27T16:09:44.310Z,46.50
2018-04-27T16:12:12.127Z,47.50
2018-04-27T16:14:40.044Z,47.60
2018-04-27T16:17:07.931Z,47.90
2018-04-27T16:19:35.827Z,48.80
2018-04-27T16:22:03.652Z,48.20
2018-04-27T16:24:31.586Z,49.10
2018-04-27T16:26:59.581Z,50.10
2018-04-27T16:29:28.224Z,49.90
2018-04-27T16:31:56.178Z,49.80
2018-04-27T16:34:24.302Z,50.40
2018-04-27T16:36:53.007Z,51.30
2018-04-27T16:39:22.118Z,51.30
2018-04-27T16:41:50.074Z,52.70
2018-04-27T16:44:17.943Z,52.90
2018-04-27T16:46:45.879Z,53.60
2018-04-27T16:49:14.482Z,53.90
2018-04-27T16:51:42.353Z,53.80
2018-04-27T16:55:40.750Z,52.50
2018-04-27T16:58:08.658Z,54.60
2018-04-27T17:00:36.770Z,55.10
2018-04-27T17:03:05.472Z,55.50
2018-04-27T17:05:33.302Z,55.40
2018-04-27T17:08:01.194Z,54.60
2018-04-27T17:10:29.125Z,55.90
2018-04-27T17:12:57.054Z,56.80
2018-04-27T17:15:24.929Z,56.20
2018-04-27T17:17:52.878Z,55.00
2018-04-27T17:20:20.822Z,55.90
2018-04-27T17:22:49.630Z,56.80
2018-04-27T17:25:18.402Z,57.50
2018-04-27T17:27:47.078Z,59.80
2018-04-27T17:30:14.988Z,59.30
2018-04-27T17:32:42.935Z,60.80
2018-04-27T17:35:10.830Z,62.30
2018-04-27T17:37:38.718Z,62.20
2018-04-27T17:40:06.647Z,61.80
2018-04-27T17:42:34.646Z,61.40
2018-04-27T17:45:02.523Z,61.80
2018-04-27T17:47:30.425Z,63.40
2018-04-27T17:49:59.036Z,65.60
2018-04-27T17:52:26.839Z,65.30
2018-04-27T17:54:54.769Z,66.30
2018-04-27T17:57:22.566Z,67.00
2018-04-27T17:59:50.417Z,67.60
2018-04-27T18:02:18.341Z,68.20
2018-04-27T18:04:46.919Z,69.70
2018-04-27T18:07:14.741Z,69.20
2018-04-27T18:09:42.740Z,71.00
2018-04-27T18:12:10.904Z,71.90
2018-04-27T18:14:38.795Z,72.50
2018-04-27T18:17:06.778Z,73.70
2018-04-27T18:19:35.374Z,76.00
2018-04-27T18:22:04.031Z,77.30
2018-04-27T18:24:32.094Z,77.20
2018-04-27T18:26:59.954Z,79.20
2018-04-27T18:29:27.965Z,79.80
2018-04-27T18:31:56.683Z,82.00
2018-04-27T18:34:24.784Z,82.00
2018-04-27T18:36:52.671Z,83.60
2018-04-27T18:39:20.904Z,85.00
2018-04-27T18:41:48.781Z,86.70
2018-04-27T18:44:16.639Z,88.40
2018-04-27T18:46:44.475Z,88.90
2018-04-27T18:49:13.130Z,87.10
2018-04-27T18:51:40.951Z,87.10
2018-04-27T18:54:08.816Z,88.40
2018-04-27T18:56:37.603Z,88.80
2018-04-27T18:59:05.697Z,88.90
2018-04-27T19:01:33.634Z,90.60
2018-04-27T19:04:01.497Z,90.70
2018-04-27T19:06:29.397Z,91.20
2018-04-27T19:08:57.760Z,91.80
2018-04-27T19:11:25.750Z,92.20
2018-04-27T19:13:53.693Z,92.50
2018-04-27T19:16:21.621Z,93.10
2018-04-27T19:18:50.421Z,94.40
2018-04-27T19:21:19.333Z,94.00
2018-04-27T19:23:47.258Z,94.70
2018-04-27T19:26:15.551Z,94.80
2018-04-27T19:28:47.120Z,94.90
2018-04-27T19:31:15.013Z,95.30
2018-04-27T19:33:42.961Z,95.50
2018-04-27T19:36:10.972Z,96.20
2018-04-27T19:38:38.788Z,96.50
2018-04-27T19:41:06.564Z,96.80
2018-04-27T19:43:35.059Z,97.20
2018-04-27T19:46:02.848Z,97.70
2018-04-27T19:48:30.626Z,97.60
2018-04-27T19:50:58.406Z,97.70
2018-04-27T19:53:26.309Z,97.80
2018-04-27T19:55:54.244Z,98.10
2018-04-27T19:58:22.197Z,98.10
2018-04-27T20:00:50.235Z,98.20
2018-04-27T20:03:18.190Z,98.90
2018-04-27T20:05:47.046Z,98.80
2018-04-27T20:08:15.314Z,99.60
2018-04-27T20:10:43.248Z,99.90
2018-04-27T20:13:14.004Z,99.90
2018-04-27T20:15:42.893Z,99.90
2018-04-27T20:18:15.603Z,99.90
2018-04-27T20:20:44.322Z,99.90
2018-04-27T20:23:13.050Z,99.90
2018-04-27T20:25:41.965Z,99.90
2018-04-27T20:28:10.714Z,99.90
2018-04-27T20:30:40.373Z,99.90
2018-04-27T20:33:11.172Z,99.90
2018-04-27T20:35:39.183Z,99.90
2018-04-27T20:38:20.433Z,99.90
2018-04-27T20:40:48.443Z,99.90
2018-04-27T20:43:16.414Z,99.90
2018-04-27T20:45:44.374Z,99.90
2018-04-27T20:48:16.053Z,99.90
2018-04-27T20:51:01.712Z,99.90
2018-04-27T20:53:33.547Z,99.90
2018-04-27T20:56:05.488Z,99.90
2018-04-27T20:58:42.020Z,99.90
2018-04-27T21:01:13.699Z,99.90
2018-04-27T21:03:42.560Z,99.90
2018-04-27T21:06:16.426Z,99.90
2018-04-27T21:08:46.334Z,99.90
2018-04-27T21:11:17.119Z,99.90
2018-04-27T21:13:45.512Z,99.90
2018-04-27T21:16:14.590Z,99.90
2018-04-27T21:18:49.053Z,99.90
2018-04-27T21:21:18.705Z,99.90
2018-04-27T21:23:51.516Z,99.90
2018-04-27T21:29:45.745Z,99.90
2018-04-27T21:32:18.157Z,99.90
2018-04-27T21:34:59.799Z,99.90
2018-04-27T21:49:36.843Z,99.90
2018-04-27T21:52:19.048Z,99.90
2018-04-27T21:54:56.457Z,99.90
2018-04-27T21:57:26.050Z,99.90
2018-04-27T22:02:47.909Z,99.90
2018-04-27T22:08:13.676Z,99.90
2018-04-27T22:10:41.689Z,99.90
2018-04-27T22:13:10.968Z,99.90
2018-04-27T22:15:39.613Z,99.90
2018-04-27T22:18:08.481Z,99.90
2018-04-27T22:20:40.125Z,99.90
2018-04-27T22:23:07.972Z,99.90
2018-04-27T22:25:53.197Z,99.90
2018-04-27T22:31:15.791Z,99.90
2018-04-27T22:33:43.661Z,99.90
2018-04-27T22:39:16.168Z,99.90
2018-04-27T22:41:44.210Z,99.90
2018-04-27T22:44:13.074Z,99.90
2018-04-27T22:46:41.821Z,99.90
2018-04-27T22:49:11.516Z,99.90
2018-04-27T22:51:43.549Z,99.90
2018-04-27T22:57:43.502Z,99.90
2018-04-27T23:00:13.942Z,99.90
2018-04-27T23:02:43.654Z,99.90
2018-04-27T23:05:24.495Z,99.90
2018-04-27T23:07:53.714Z,99.90
2018-04-27T23:10:24.202Z,99.90
2018-04-27T23:13:07.055Z,99.90
2018-04-27T23:15:47.303Z,99.90
2018-04-27T23:18:20.660Z,99.90
2018-04-27T23:20:50.122Z,99.90
2018-04-27T23:23:19.913Z,99.90
2018-04-27T23:25:48.779Z,99.90
2018-04-27T23:28:19.398Z,99.90
2018-04-27T23:30:48.773Z,99.90
2018-04-27T23:33:17.371Z,99.90
2018-04-27T23:35:51.615Z,99.90
2018-04-27T23:38:19.688Z,99.90
2018-04-27T23:40:51.937Z,99.90
2018-04-27T23:43:20.689Z,99.90
2018-04-27T23:45:48.812Z,99.90
2018-04-27T23:48:16.717Z,99.90
2018-04-27T23:51:03.299Z,99.90
2018-04-27T23:53:39.782Z,99.90
2018-04-27T23:56:07.990Z,99.90
2018-04-27T23:58:37.238Z,99.90
